Aviation Digital Data Service (ADDS)

Output produced by METARs form (2050 UTC 25 September 2016)
found at http://aviationweather.gov/adds/metars/
 
KLAS 252045Z 2521/2618 05015G23KT P6SM SKC 
     FM260300 01009KT P6SM SKC 
     FM260800 23007KT P6SM SKC 
     FM261700 04006KT P6SM SKC